Time;durP1;ratioP1;P1;durP2;ratioP2;P2;SDS_P1;SDS_P2;PMS_P1;PMS_P2;Temp;Humidity;BMP_temperature;BMP_pressure;BME280_temperature;BME280_humidity;BME280_pressure;Samples;Min_cycle;Max_cycle;Signal;HPM_P1;HPM_P2
2022/01/07 00:01:30;;;;;;;15.00;4.20;;;2.40;99.90;;;;;;4939535;28;20073;-82
2022/01/07 00:03:55;;;;;;;8.82;3.78;;;2.40;99.90;;;;;;4929880;28;20063;-82
2022/01/07 00:06:21;;;;;;;8.02;3.42;;;2.40;99.90;;;;;;4938865;28;20043;-82
2022/01/07 00:08:47;;;;;;;13.73;3.42;;;2.40;99.90;;;;;;4930159;28;20131;-83
2022/01/07 00:11:12;;;;;;;21.05;5.15;;;2.40;99.90;;;;;;4927494;28;20067;-82
2022/01/07 00:13:38;;;;;;;10.48;4.15;;;2.40;99.90;;;;;;4921825;28;20045;-82
2022/01/07 00:16:03;;;;;;;8.63;2.85;;;2.40;99.90;;;;;;4930916;28;20058;-82
2022/01/07 00:18:29;;;;;;;8.02;2.70;;;2.40;99.90;;;;;;4928517;28;20039;-82
2022/01/07 00:20:54;;;;;;;8.10;3.67;;;2.40;99.90;;;;;;4928379;28;20030;-82
2022/01/07 00:23:20;;;;;;;9.23;3.30;;;2.40;99.90;;;;;;4941571;28;20669;-82
2022/01/07 00:25:46;;;;;;;8.52;3.22;;;2.40;99.90;;;;;;4932708;28;20055;-82
2022/01/07 00:28:11;;;;;;;8.15;3.00;;;2.40;99.90;;;;;;4929503;28;20090;-82
2022/01/07 00:30:37;;;;;;;10.43;2.88;;;2.50;99.90;;;;;;4929579;28;20039;-82
2022/01/07 00:33:04;;;;;;;12.95;4.40;;;2.40;99.90;;;;;;4930774;28;20055;-82
2022/01/07 00:35:30;;;;;;;11.02;3.30;;;2.40;99.90;;;;;;4925915;28;20389;-82
2022/01/07 00:37:55;;;;;;;8.35;2.70;;;2.40;99.90;;;;;;4930329;28;20035;-82
2022/01/07 00:40:21;;;;;;;10.60;3.58;;;2.40;99.90;;;;;;4926653;28;20039;-82
2022/01/07 00:42:49;;;;;;;10.52;2.60;;;2.50;99.90;;;;;;4943177;28;20030;-82
2022/01/07 00:45:15;;;;;;;16.42;4.35;;;2.50;99.90;;;;;;4923698;28;20054;-82
2022/01/07 00:47:40;;;;;;;10.20;3.17;;;2.50;99.90;;;;;;4954875;28;20035;-82
2022/01/07 00:50:06;;;;;;;5.97;2.78;;;2.50;99.90;;;;;;4931895;28;20037;-82
2022/01/07 00:52:35;;;;;;;7.28;2.53;;;2.40;99.90;;;;;;4932149;28;20419;-82
2022/01/07 00:55:01;;;;;;;5.55;2.83;;;2.50;99.90;;;;;;4932042;28;20039;-82
2022/01/07 00:57:26;;;;;;;5.05;2.00;;;2.50;99.90;;;;;;4925115;29;20070;-82
2022/01/07 00:59:52;;;;;;;5.03;2.55;;;2.50;99.90;;;;;;4899309;28;20059;-82
2022/01/07 01:02:17;;;;;;;5.68;2.47;;;2.40;99.90;;;;;;4936657;28;20035;-82
2022/01/07 01:04:43;;;;;;;4.95;2.55;;;2.50;99.90;;;;;;4945086;28;20042;-82
2022/01/07 01:07:09;;;;;;;11.25;3.28;;;2.50;99.90;;;;;;4937717;28;20027;-82
2022/01/07 01:09:34;;;;;;;8.45;3.05;;;2.50;99.90;;;;;;4931644;28;20042;-82
2022/01/07 01:12:00;;;;;;;7.90;2.60;;;2.50;99.90;;;;;;4939608;28;20046;-82
2022/01/07 01:14:26;;;;;;;3.75;1.77;;;2.60;99.90;;;;;;4924244;28;20031;-82
2022/01/07 01:16:52;;;;;;;9.10;2.50;;;2.60;99.90;;;;;;4932650;28;20102;-82
2022/01/07 01:19:17;;;;;;;10.57;3.47;;;2.60;99.90;;;;;;4926100;28;20035;-82
2022/01/07 01:21:43;;;;;;;13.57;2.67;;;2.60;99.90;;;;;;4930437;28;20030;-82
2022/01/07 01:24:09;;;;;;;7.32;3.22;;;2.60;99.90;;;;;;4927331;28;20463;-83
2022/01/07 01:26:34;;;;;;;9.65;2.35;;;2.60;99.90;;;;;;4953931;28;20031;-82
2022/01/07 01:29:00;;;;;;;6.05;2.95;;;2.60;99.90;;;;;;4941174;28;20035;-83
2022/01/07 01:31:25;;;;;;;17.55;4.95;;;2.70;99.90;;;;;;4929658;28;20110;-82
2022/01/07 01:33:51;;;;;;;7.63;2.80;;;2.60;99.90;;;;;;4929883;28;20053;-82
2022/01/07 01:36:16;;;;;;;7.13;1.67;;;2.70;99.90;;;;;;4930255;28;20121;-82
2022/01/07 01:38:42;;;;;;;11.05;4.30;;;2.70;99.90;;;;;;4942014;28;20035;-82
2022/01/07 01:41:08;;;;;;;5.75;2.88;;;2.70;99.90;;;;;;4926824;28;20031;-82
2022/01/07 01:43:34;;;;;;;9.57;2.88;;;2.70;99.90;;;;;;4950671;28;20032;-82
2022/01/07 01:45:59;;;;;;;8.07;3.03;;;2.70;99.90;;;;;;4937241;28;20045;-82
2022/01/07 01:48:25;;;;;;;2.60;1.98;;;2.70;99.90;;;;;;4929296;28;20054;-82
2022/01/07 01:50:51;;;;;;;8.10;3.53;;;2.70;99.90;;;;;;4929573;28;20118;-82
2022/01/07 01:53:16;;;;;;;8.57;3.33;;;2.70;99.90;;;;;;4925514;28;20515;-83
2022/01/07 01:55:42;;;;;;;7.50;2.75;;;2.70;99.90;;;;;;4931461;28;20027;-83
2022/01/07 01:58:07;;;;;;;6.47;3.15;;;2.70;99.90;;;;;;4928012;28;20094;-82
2022/01/07 02:00:33;;;;;;;11.02;3.95;;;2.70;99.90;;;;;;4939388;28;20038;-83
2022/01/07 02:02:59;;;;;;;14.63;4.72;;;2.70;99.90;;;;;;4930630;28;20063;-82
2022/01/07 02:05:26;;;;;;;7.75;3.38;;;2.70;99.90;;;;;;4939501;28;20043;-82
2022/01/07 02:07:52;;;;;;;4.82;2.78;;;2.70;99.90;;;;;;4942526;28;20483;-82
2022/01/07 02:10:17;;;;;;;8.40;3.95;;;2.70;99.90;;;;;;4923944;28;20093;-82
2022/01/07 02:12:43;;;;;;;9.65;3.25;;;2.70;99.90;;;;;;4958789;28;20026;-83
2022/01/07 02:15:10;;;;;;;6.95;1.70;;;2.60;99.90;;;;;;4920300;28;20036;-82
2022/01/07 02:17:37;;;;;;;10.55;4.07;;;2.70;99.90;;;;;;4924172;28;20032;-82
2022/01/07 02:20:03;;;;;;;15.02;4.88;;;2.70;99.90;;;;;;4928558;28;20038;-82
2022/01/07 02:22:29;;;;;;;11.05;4.38;;;2.70;99.90;;;;;;4939185;28;20047;-83
2022/01/07 02:24:54;;;;;;;10.50;3.53;;;2.70;99.90;;;;;;4939677;28;20035;-83
2022/01/07 02:27:20;;;;;;;11.02;4.82;;;2.70;99.90;;;;;;4929957;28;20472;-82
2022/01/07 02:29:48;;;;;;;9.85;4.03;;;2.70;99.90;;;;;;4939796;28;20050;-82
2022/01/07 02:32:14;;;;;;;8.85;3.40;;;2.70;99.90;;;;;;4926080;28;20447;-82
2022/01/07 02:34:39;;;;;;;6.28;2.88;;;2.70;99.90;;;;;;4912190;28;20028;-82
2022/01/07 02:37:05;;;;;;;12.88;4.07;;;2.70;99.90;;;;;;4941921;28;20027;-82
2022/01/07 02:39:30;;;;;;;7.07;4.00;;;2.70;99.90;;;;;;4952136;28;20055;-82
2022/01/07 02:41:56;;;;;;;7.13;3.05;;;2.70;99.90;;;;;;4942200;28;20041;-82
2022/01/07 02:44:21;;;;;;;13.35;4.10;;;2.70;99.90;;;;;;4923594;28;20035;-82
2022/01/07 02:46:47;;;;;;;8.13;2.33;;;2.70;99.90;;;;;;4925930;28;20051;-82
2022/01/07 02:49:14;;;;;;;10.68;3.75;;;2.70;99.90;;;;;;4929589;28;20035;-82
2022/01/07 02:51:40;;;;;;;3.35;2.17;;;2.70;99.90;;;;;;4938644;28;20513;-82
2022/01/07 02:54:06;;;;;;;6.80;2.70;;;2.70;99.90;;;;;;4942705;28;20114;-82
2022/01/07 02:56:31;;;;;;;7.78;3.05;;;2.60;99.90;;;;;;4946617;28;20035;-82
2022/01/07 02:58:57;;;;;;;8.65;4.07;;;2.70;99.90;;;;;;4942770;28;20037;-82
2022/01/07 03:01:22;;;;;;;8.00;2.63;;;2.60;99.90;;;;;;4946909;28;20035;-82
2022/01/07 03:03:48;;;;;;;5.28;2.20;;;2.60;99.90;;;;;;4933148;28;20027;-82
2022/01/07 03:06:13;;;;;;;6.07;3.78;;;2.50;99.90;;;;;;4929535;28;20042;-83
2022/01/07 03:08:39;;;;;;;3.92;2.08;;;2.50;99.90;;;;;;4946144;28;20369;-83
2022/01/07 03:11:04;;;;;;;9.70;3.95;;;2.50;99.90;;;;;;4927250;28;20503;-83
2022/01/07 03:13:30;;;;;;;5.32;2.40;;;2.50;99.90;;;;;;4925855;28;20046;-83
2022/01/07 03:15:55;;;;;;;12.05;4.68;;;2.50;99.90;;;;;;4926235;29;20027;-82
2022/01/07 03:18:21;;;;;;;6.82;3.95;;;2.50;99.90;;;;;;4951057;28;20023;-83
2022/01/07 03:20:46;;;;;;;12.18;4.50;;;2.50;99.90;;;;;;4941841;28;20039;-82
2022/01/07 03:23:12;;;;;;;7.88;3.72;;;2.50;99.90;;;;;;4941437;28;20034;-84
2022/01/07 03:25:42;;;;;;;10.48;3.63;;;2.40;99.90;;;;;;4941631;28;20114;-84
2022/01/07 03:28:08;;;;;;;11.25;3.35;;;2.40;99.90;;;;;;4927033;28;20031;-85
2022/01/07 03:30:34;;;;;;;4.75;2.67;;;2.30;99.90;;;;;;4929808;28;20094;-84
2022/01/07 03:33:00;;;;;;;11.43;5.82;;;2.30;99.90;;;;;;4931482;28;20034;-85
2022/01/07 03:35:25;;;;;;;5.68;3.13;;;2.30;99.90;;;;;;4943412;28;20039;-84
2022/01/07 03:37:51;;;;;;;11.18;4.90;;;2.30;99.90;;;;;;4940312;28;20035;-84
2022/01/07 03:40:19;;;;;;;5.53;3.53;;;2.20;99.90;;;;;;4927212;28;20403;-85
2022/01/07 03:42:45;;;;;;;7.35;4.32;;;2.20;99.90;;;;;;4940435;28;20027;-85
2022/01/07 03:45:11;;;;;;;13.32;5.78;;;2.20;99.90;;;;;;4928465;28;20090;-84
2022/01/07 03:47:37;;;;;;;10.48;4.18;;;2.20;99.90;;;;;;4945792;28;20543;-85
2022/01/07 03:50:06;;;;;;;8.65;4.03;;;2.20;99.90;;;;;;4945776;28;20031;-84
2022/01/07 03:52:32;;;;;;;15.18;5.10;;;2.20;99.90;;;;;;4938084;28;20039;-85
2022/01/07 03:54:58;;;;;;;8.85;4.93;;;2.20;99.90;;;;;;4940632;28;20093;-85
2022/01/07 03:57:23;;;;;;;9.63;4.63;;;2.10;99.90;;;;;;4913498;28;20114;-85
2022/01/07 03:59:50;;;;;;;11.70;4.63;;;2.10;99.90;;;;;;4946422;28;20337;-85
2022/01/07 04:02:19;;;;;;;7.75;4.75;;;2.10;99.90;;;;;;4927993;28;20554;-85
2022/01/07 04:04:45;;;;;;;10.00;5.32;;;2.10;99.90;;;;;;4934671;28;20543;-84
2022/01/07 04:07:10;;;;;;;7.75;2.45;;;2.10;99.90;;;;;;4940163;28;20032;-84
2022/01/07 04:09:36;;;;;;;9.88;4.25;;;2.10;99.90;;;;;;4942838;28;20523;-82
2022/01/07 04:12:01;;;;;;;14.68;6.13;;;2.10;99.90;;;;;;4930168;28;20411;-83
2022/01/07 04:14:27;;;;;;;15.43;4.50;;;2.10;99.90;;;;;;4929435;28;20389;-83
2022/01/07 04:16:53;;;;;;;6.55;3.33;;;2.10;99.90;;;;;;4944162;28;20038;-83
2022/01/07 04:19:18;;;;;;;14.52;5.97;;;2.10;99.90;;;;;;4924974;28;20027;-83
2022/01/07 04:21:44;;;;;;;8.93;4.65;;;2.10;99.90;;;;;;4954430;28;20162;-83
2022/01/07 04:24:10;;;;;;;14.65;5.43;;;2.10;99.90;;;;;;4950812;28;20053;-83
2022/01/07 04:26:35;;;;;;;6.10;3.95;;;2.10;99.90;;;;;;4943499;28;20063;-82
2022/01/07 04:29:01;;;;;;;8.85;3.28;;;2.10;99.90;;;;;;4928217;28;20062;-83
2022/01/07 04:31:26;;;;;;;11.50;4.32;;;2.10;99.90;;;;;;4928965;28;20429;-83
2022/01/07 04:33:52;;;;;;;5.47;2.28;;;2.10;99.90;;;;;;4958485;28;20077;-83
2022/01/07 04:36:17;;;;;;;10.65;5.03;;;2.10;99.90;;;;;;4944418;28;20070;-83
2022/01/07 04:38:44;;;;;;;4.82;2.72;;;2.00;99.90;;;;;;4935023;28;20046;-83
2022/01/07 04:41:10;;;;;;;8.73;3.90;;;2.10;99.90;;;;;;4927773;28;20054;-84
2022/01/07 04:43:35;;;;;;;11.73;3.80;;;2.10;99.90;;;;;;4940119;28;20990;-83
2022/01/07 04:46:01;;;;;;;7.10;3.33;;;2.10;99.90;;;;;;4923476;28;20042;-82
2022/01/07 04:48:26;;;;;;;6.50;2.92;;;2.10;99.90;;;;;;4925558;28;20116;-83
2022/01/07 04:50:52;;;;;;;7.65;3.50;;;2.10;99.90;;;;;;4944371;28;20042;-83
2022/01/07 04:53:17;;;;;;;7.03;2.88;;;2.10;99.90;;;;;;4939880;28;20046;-84
2022/01/07 04:55:44;;;;;;;7.50;3.10;;;2.10;99.90;;;;;;4942183;28;20031;-83
2022/01/07 04:58:11;;;;;;;10.10;3.40;;;2.10;99.90;;;;;;4956044;28;20050;-83
2022/01/07 05:00:37;;;;;;;5.35;2.28;;;2.10;99.90;;;;;;4941229;28;20059;-83
2022/01/07 05:03:02;;;;;;;6.45;3.42;;;2.10;99.90;;;;;;4937869;28;20059;-83
2022/01/07 05:05:28;;;;;;;5.85;2.70;;;2.10;99.90;;;;;;4944507;28;20102;-83
2022/01/07 05:07:54;;;;;;;6.22;2.83;;;2.10;99.90;;;;;;4929449;28;20053;-83
2022/01/07 05:10:19;;;;;;;10.52;3.30;;;2.10;99.90;;;;;;4927828;28;20043;-83
2022/01/07 05:12:45;;;;;;;5.90;2.63;;;2.20;99.90;;;;;;4931042;28;20110;-83
2022/01/07 05:15:12;;;;;;;4.32;2.00;;;2.10;99.90;;;;;;4934098;28;20031;-83
2022/01/07 05:17:37;;;;;;;9.25;2.67;;;2.10;99.90;;;;;;4940505;28;20090;-83
2022/01/07 05:20:03;;;;;;;4.75;1.80;;;2.10;99.90;;;;;;4936177;28;20039;-82
2022/01/07 05:22:29;;;;;;;9.90;3.42;;;2.10;99.90;;;;;;4928426;28;20043;-82
2022/01/07 05:24:54;;;;;;;10.93;2.00;;;2.20;99.90;;;;;;4942029;28;20039;-83
2022/01/07 05:27:20;;;;;;;10.70;3.08;;;2.30;99.90;;;;;;4924674;28;20039;-83
2022/01/07 05:29:45;;;;;;;4.43;2.42;;;2.20;99.90;;;;;;4929232;28;20038;-83
2022/01/07 05:32:11;;;;;;;7.72;3.45;;;2.10;99.90;;;;;;4938996;28;20051;-84
2022/01/07 05:34:36;;;;;;;5.22;1.70;;;2.10;99.90;;;;;;4944007;28;20059;-84
2022/01/07 05:37:03;;;;;;;8.73;2.45;;;2.20;99.90;;;;;;4929871;28;20062;-84
2022/01/07 05:39:29;;;;;;;5.63;3.13;;;2.20;99.90;;;;;;4929249;28;20058;-83
2022/01/07 05:41:55;;;;;;;10.70;4.20;;;2.20;99.90;;;;;;4927233;28;20118;-84
2022/01/07 05:44:21;;;;;;;6.22;2.95;;;2.20;99.90;;;;;;4936649;28;20122;-85
2022/01/07 05:46:47;;;;;;;7.82;2.95;;;2.10;99.90;;;;;;4957131;28;20431;-84
2022/01/07 05:49:12;;;;;;;5.68;2.20;;;2.10;99.90;;;;;;4940725;28;20034;-85
2022/01/07 05:51:38;;;;;;;7.53;3.08;;;2.10;99.90;;;;;;4942665;28;20399;-85
2022/01/07 05:54:04;;;;;;;4.93;3.03;;;2.10;99.90;;;;;;4924752;28;20034;-84
2022/01/07 05:56:31;;;;;;;8.45;3.05;;;2.00;99.90;;;;;;4956383;28;20435;-84
2022/01/07 05:58:56;;;;;;;5.18;2.40;;;2.00;99.90;;;;;;4925555;28;20026;-84
2022/01/07 06:01:22;;;;;;;7.88;2.47;;;2.20;99.90;;;;;;4923816;28;20628;-84
2022/01/07 06:03:47;;;;;;;12.13;3.55;;;2.10;99.90;;;;;;4946316;28;20476;-84
2022/01/07 06:06:13;;;;;;;3.13;2.30;;;2.00;99.90;;;;;;4924188;28;20526;-83
2022/01/07 06:08:38;;;;;;;11.63;4.22;;;2.00;99.90;;;;;;4931700;28;20075;-86
2022/01/07 06:11:04;;;;;;;6.07;3.25;;;2.00;99.90;;;;;;4902393;28;20043;-83
2022/01/07 06:13:29;;;;;;;5.85;2.72;;;1.90;99.90;;;;;;4940153;28;20034;-84
2022/01/07 06:15:55;;;;;;;8.85;3.67;;;1.90;99.90;;;;;;4943338;28;20114;-84
2022/01/07 06:18:21;;;;;;;8.77;3.72;;;2.00;99.90;;;;;;4939113;28;20517;-83
2022/01/07 06:20:46;;;;;;;8.63;3.10;;;1.90;99.90;;;;;;4929714;28;20114;-84
2022/01/07 06:23:12;;;;;;;8.38;3.72;;;1.90;99.90;;;;;;4929404;28;20031;-85
2022/01/07 06:25:37;;;;;;;5.03;2.30;;;2.00;99.90;;;;;;4939053;28;20043;-84
2022/01/07 06:28:03;;;;;;;5.88;2.30;;;1.90;99.90;;;;;;4938770;28;20126;-84
2022/01/07 06:30:29;;;;;;;8.90;4.35;;;1.90;99.90;;;;;;4945235;28;20047;-84
2022/01/07 06:32:54;;;;;;;7.97;2.72;;;1.90;99.90;;;;;;4942914;28;20114;-84
2022/01/07 06:35:20;;;;;;;7.45;2.60;;;1.90;99.90;;;;;;4942266;28;20031;-84
2022/01/07 06:37:46;;;;;;;8.00;3.28;;;2.00;99.90;;;;;;4932243;28;20027;-84
2022/01/07 06:40:11;;;;;;;10.70;4.03;;;2.00;99.90;;;;;;4940600;28;20047;-84
2022/01/07 06:42:37;;;;;;;2.03;1.63;;;1.90;99.90;;;;;;4931910;28;20063;-84
2022/01/07 06:45:05;;;;;;;3.47;1.63;;;1.90;99.90;;;;;;4932815;28;20031;-84
2022/01/07 06:47:30;;;;;;;5.63;3.15;;;1.90;99.90;;;;;;4943330;28;20086;-84
2022/01/07 06:49:56;;;;;;;3.95;2.28;;;1.90;99.90;;;;;;4929374;28;20038;-84
2022/01/07 06:52:21;;;;;;;4.53;2.58;;;2.00;99.90;;;;;;4931313;28;20038;-84
2022/01/07 06:54:47;;;;;;;5.72;3.13;;;2.00;99.90;;;;;;4932598;28;20059;-84
2022/01/07 06:57:12;;;;;;;5.43;2.80;;;2.00;99.90;;;;;;4933011;28;20150;-83
2022/01/07 06:59:38;;;;;;;12.52;4.20;;;2.00;99.90;;;;;;4940802;28;20031;-84
2022/01/07 07:02:04;;;;;;;7.18;4.00;;;2.00;99.90;;;;;;4931648;28;20035;-84
2022/01/07 07:04:29;;;;;;;9.73;3.80;;;2.00;99.90;;;;;;4941740;28;20035;-84
2022/01/07 07:06:55;;;;;;;7.10;3.95;;;2.00;99.90;;;;;;4931469;28;20047;-83
2022/01/07 07:09:20;;;;;;;13.13;6.25;;;2.00;99.90;;;;;;4939431;28;20046;-84
2022/01/07 07:11:46;;;;;;;7.30;3.55;;;2.00;99.90;;;;;;4919007;28;20035;-84
2022/01/07 07:14:12;;;;;;;4.80;3.17;;;2.00;99.90;;;;;;4940122;28;20505;-84
2022/01/07 07:16:37;;;;;;;8.52;4.10;;;2.10;99.90;;;;;;4939170;28;20058;-84
2022/01/07 07:19:03;;;;;;;5.72;3.90;;;2.10;99.90;;;;;;4942798;28;20034;-84
2022/01/07 07:21:28;;;;;;;4.90;2.63;;;2.10;99.90;;;;;;4934633;28;20027;-83
2022/01/07 07:23:54;;;;;;;14.52;5.82;;;2.10;99.90;;;;;;4929525;28;20034;-84
2022/01/07 07:26:19;;;;;;;5.35;2.92;;;2.10;99.90;;;;;;4939214;28;20047;-84
2022/01/07 07:28:46;;;;;;;5.72;3.58;;;2.20;99.90;;;;;;4945625;28;20502;-84
2022/01/07 07:31:15;;;;;;;12.35;1.65;;;2.20;99.90;;;;;;4930796;28;20740;-84
2022/01/07 07:34:06;;;;;;;7.88;4.65;;;2.20;99.90;;;;;;4941588;28;20086;-84
2022/01/07 07:36:31;;;;;;;7.50;3.85;;;2.20;99.90;;;;;;4947288;28;20037;-83
2022/01/07 07:39:03;;;;;;;8.40;4.25;;;2.20;99.90;;;;;;4945728;28;20031;-84
2022/01/07 07:41:29;;;;;;;14.27;4.45;;;2.20;99.90;;;;;;4923113;28;20113;-83
2022/01/07 07:43:56;;;;;;;6.45;3.83;;;2.30;99.90;;;;;;4941447;28;20039;-84
2022/01/07 07:46:21;;;;;;;8.32;4.47;;;2.30;99.90;;;;;;4930092;28;20041;-83
2022/01/07 07:48:47;;;;;;;12.05;5.85;;;2.30;99.90;;;;;;4938013;28;20023;-84
2022/01/07 07:51:13;;;;;;;7.30;3.30;;;2.30;99.90;;;;;;4926665;28;20043;-84
2022/01/07 07:53:39;;;;;;;10.68;4.35;;;2.30;99.90;;;;;;4926774;28;20051;-83
2022/01/07 07:56:04;;;;;;;8.90;4.00;;;2.40;99.90;;;;;;4941970;28;20043;-83
2022/01/07 07:58:30;;;;;;;10.10;4.53;;;2.40;99.90;;;;;;4929181;28;20035;-84
2022/01/07 08:00:56;;;;;;;6.85;4.22;;;2.40;99.90;;;;;;4941217;28;20435;-83
2022/01/07 08:03:22;;;;;;;10.23;5.13;;;2.40;99.90;;;;;;4943498;28;20149;-84
2022/01/07 08:05:48;;;;;;;6.28;4.28;;;2.40;99.90;;;;;;4920795;28;20039;-83
2022/01/07 08:08:13;;;;;;;3.72;2.40;;;2.40;99.90;;;;;;4928642;28;20039;-83
2022/01/07 08:10:46;;;;;;;8.95;5.03;;;2.50;99.90;;;;;;4928579;28;20027;-83
2022/01/07 08:18:23;;;;;;;7.40;4.47;;;2.50;99.90;;;;;;4929233;28;20162;-84
2022/01/07 08:20:52;;;;;;;5.53;3.90;;;2.50;99.90;;;;;;4913326;28;20042;-84
2022/01/07 08:23:18;;;;;;;9.07;3.40;;;2.50;99.90;;;;;;4943432;28;20660;-84
2022/01/07 08:25:44;;;;;;;11.52;6.50;;;2.50;99.90;;;;;;4940728;28;20089;-84
2022/01/07 08:28:11;;;;;;;11.23;4.40;;;2.60;99.90;;;;;;4940775;28;20034;-84
2022/01/07 08:30:38;;;;;;;6.75;4.85;;;2.60;99.90;;;;;;4930366;28;20180;-84
2022/01/07 08:35:48;;;;;;;7.20;4.20;;;2.60;99.90;;;;;;4943981;28;20571;-83
2022/01/07 08:38:14;;;;;;;9.18;3.50;;;2.60;99.90;;;;;;4927356;28;20066;-83
2022/01/07 08:40:39;;;;;;;7.00;4.20;;;2.60;99.90;;;;;;4927891;28;20122;-84
2022/01/07 08:43:05;;;;;;;3.45;2.40;;;2.60;99.90;;;;;;4945160;28;20058;-83
2022/01/07 08:45:30;;;;;;;4.45;3.05;;;2.60;99.90;;;;;;4930397;28;20502;-84
2022/01/07 08:47:56;;;;;;;3.70;2.17;;;2.70;99.90;;;;;;4940650;28;20031;-83
2022/01/07 08:50:22;;;;;;;5.93;3.40;;;2.70;99.90;;;;;;4929198;28;20468;-82
2022/01/07 08:52:47;;;;;;;7.60;3.63;;;2.70;99.90;;;;;;4904910;28;20105;-84
2022/01/07 08:55:13;;;;;;;5.78;2.80;;;2.70;99.90;;;;;;4931007;28;20062;-84
2022/01/07 08:57:40;;;;;;;6.45;3.60;;;2.70;99.90;;;;;;4943212;28;20023;-85
2022/01/07 09:00:06;;;;;;;6.93;5.15;;;2.80;99.90;;;;;;4915717;28;20038;-85
2022/01/07 09:02:31;;;;;;;7.78;4.07;;;2.80;99.90;;;;;;4941312;28;20062;-84
2022/01/07 09:04:57;;;;;;;8.35;4.38;;;2.80;99.90;;;;;;4925198;28;20038;-83
2022/01/07 09:07:22;;;;;;;10.00;3.80;;;2.80;99.90;;;;;;4937874;28;20035;-83
2022/01/07 09:09:48;;;;;;;7.78;4.25;;;2.80;99.90;;;;;;4926275;28;20373;-83
2022/01/07 09:12:14;;;;;;;11.65;5.07;;;2.90;99.90;;;;;;4938830;28;20077;-83
2022/01/07 09:14:39;;;;;;;7.22;4.88;;;2.90;99.90;;;;;;4941439;28;20031;-83
2022/01/07 09:17:05;;;;;;;7.50;3.25;;;2.90;99.90;;;;;;4927688;28;20054;-83
2022/01/07 09:19:31;;;;;;;6.07;4.30;;;2.90;99.90;;;;;;4942574;28;20039;-83
2022/01/07 09:21:58;;;;;;;5.35;4.05;;;3.00;99.90;;;;;;4925357;28;20027;-83
2022/01/07 09:24:25;;;;;;;7.07;3.92;;;3.00;99.90;;;;;;4951801;28;20035;-83
2022/01/07 09:26:51;;;;;;;5.25;3.00;;;3.00;99.90;;;;;;4936778;28;20035;-83
2022/01/07 09:29:16;;;;;;;5.95;3.70;;;3.10;99.90;;;;;;4940550;28;20451;-83
2022/01/07 09:31:42;;;;;;;7.35;4.47;;;3.10;99.90;;;;;;4936796;28;20033;-83
2022/01/07 09:34:07;;;;;;;9.70;4.63;;;3.10;99.90;;;;;;4926773;28;20027;-83
2022/01/07 09:36:33;;;;;;;4.95;3.13;;;3.20;99.90;;;;;;4930815;28;20046;-83
2022/01/07 09:38:58;;;;;;;11.35;3.67;;;3.20;99.90;;;;;;4940251;28;20476;-83
2022/01/07 09:41:24;;;;;;;2.22;1.92;;;3.20;99.90;;;;;;4930599;28;20101;-83
2022/01/07 09:43:50;;;;;;;3.60;2.13;;;3.20;99.90;;;;;;4930322;28;20042;-83
2022/01/07 09:46:16;;;;;;;9.13;4.35;;;3.20;99.90;;;;;;4925257;28;20046;-83
2022/01/07 09:48:42;;;;;;;4.53;3.97;;;3.30;99.90;;;;;;4941067;28;20031;-82
2022/01/07 09:51:08;;;;;;;2.25;1.70;;;3.30;99.90;;;;;;4943513;28;20447;-83
2022/01/07 09:53:34;;;;;;;3.85;2.80;;;3.30;99.90;;;;;;4943190;28;20113;-83
2022/01/07 09:56:00;;;;;;;7.53;3.30;;;3.30;99.90;;;;;;4930400;28;20134;-83
2022/01/07 09:58:26;;;;;;;1.10;0.80;;;3.30;99.90;;;;;;4939766;28;20043;-83
2022/01/07 10:00:55;;;;;;;3.03;2.13;;;3.40;99.90;;;;;;4937859;28;20039;-83
2022/01/07 10:03:20;;;;;;;5.97;3.47;;;3.40;99.90;;;;;;4945869;28;20086;-83
2022/01/07 10:05:49;;;;;;;3.20;2.33;;;3.40;99.90;;;;;;4938131;28;20496;-83
2022/01/07 10:08:17;;;;;;;3.42;2.53;;;3.40;99.90;;;;;;4929244;28;20038;-83
2022/01/07 10:10:43;;;;;;;6.45;2.78;;;3.40;99.90;;;;;;4943728;28;20141;-82
2022/01/07 10:13:08;;;;;;;5.20;2.88;;;3.40;99.90;;;;;;4943010;28;20554;-83
2022/01/07 10:15:35;;;;;;;5.82;3.13;;;3.50;99.90;;;;;;4932147;28;20034;-82
2022/01/07 10:18:03;;;;;;;1.95;1.40;;;3.50;99.90;;;;;;4929874;28;20031;-82
2022/01/07 10:20:33;;;;;;;5.47;3.10;;;3.50;99.90;;;;;;4927802;28;20141;-82
2022/01/07 10:23:06;;;;;;;2.28;1.52;;;3.50;99.90;;;;;;4935428;28;20030;-82
2022/01/07 10:25:33;;;;;;;4.05;1.83;;;3.60;99.90;;;;;;4944437;28;20047;-83
2022/01/07 10:28:10;;;;;;;5.28;1.75;;;3.50;99.90;;;;;;4929731;28;20027;-83
2022/01/07 10:30:46;;;;;;;2.83;1.45;;;3.60;99.90;;;;;;4927842;28;20061;-83
2022/01/07 10:33:28;;;;;;;3.33;2.25;;;3.60;99.90;;;;;;4926594;28;20601;-83
2022/01/07 10:35:59;;;;;;;6.70;3.03;;;3.60;99.90;;;;;;4884316;28;20033;-83
2022/01/07 10:38:28;;;;;;;2.55;1.27;;;3.60;99.90;;;;;;4908693;28;20503;-83
2022/01/07 10:40:59;;;;;;;2.67;1.80;;;3.80;99.90;;;;;;4930069;28;20048;-83
2022/01/07 10:43:32;;;;;;;4.53;2.40;;;3.70;99.90;;;;;;4928888;28;20031;-83
2022/01/07 10:46:11;;;;;;;9.60;2.60;;;3.80;99.90;;;;;;4914119;28;20563;-83
2022/01/07 10:48:47;;;;;;;3.25;1.77;;;3.80;99.90;;;;;;4924961;28;20372;-83
2022/01/07 10:51:20;;;;;;;2.70;1.63;;;3.80;99.90;;;;;;4919526;28;20146;-83
2022/01/07 10:53:51;;;;;;;4.43;1.10;;;3.80;99.90;;;;;;4914820;28;20556;-83
2022/01/07 10:56:18;;;;;;;3.65;1.75;;;3.80;99.90;;;;;;4914463;28;20039;-83
2022/01/07 10:58:51;;;;;;;4.45;1.88;;;3.80;99.90;;;;;;4943247;28;20093;-84
2022/01/07 11:01:19;;;;;;;2.83;1.58;;;3.90;99.90;;;;;;4928071;28;20096;-82
2022/01/07 11:03:46;;;;;;;1.47;1.10;;;3.90;99.90;;;;;;4905637;28;1067953;-83
2022/01/07 11:06:11;;;;;;;2.08;1.17;;;3.90;99.90;;;;;;4930973;28;20503;-83
2022/01/07 11:08:37;;;;;;;2.67;1.17;;;3.90;99.90;;;;;;4953727;28;20046;-83
2022/01/07 11:11:02;;;;;;;2.53;1.80;;;3.90;99.90;;;;;;4944094;28;20039;-83
2022/01/07 11:13:30;;;;;;;3.80;2.10;;;3.90;99.90;;;;;;4944105;28;20121;-83
2022/01/07 11:15:55;;;;;;;2.15;1.83;;;4.00;99.90;;;;;;4933513;28;20333;-83
2022/01/07 11:18:21;;;;;;;0.77;0.70;;;4.00;99.90;;;;;;4943949;28;20038;-83
2022/01/07 11:20:46;;;;;;;1.77;1.02;;;4.00;99.90;;;;;;4927019;28;20049;-83
2022/01/07 11:23:12;;;;;;;4.05;1.92;;;4.00;99.90;;;;;;4930811;28;20041;-82
2022/01/07 11:25:37;;;;;;;2.40;1.77;;;4.00;99.90;;;;;;4939920;28;20055;-83
2022/01/07 11:28:03;;;;;;;1.98;1.52;;;4.10;99.90;;;;;;4943071;28;20037;-83
2022/01/07 11:30:32;;;;;;;1.90;1.70;;;4.10;99.90;;;;;;4918474;28;20464;-83
2022/01/07 11:32:58;;;;;;;2.45;1.48;;;4.10;99.90;;;;;;4919566;28;20039;-83
2022/01/07 11:35:24;;;;;;;2.50;1.33;;;4.10;99.90;;;;;;4944554;28;20030;-83
2022/01/07 11:37:53;;;;;;;3.05;2.38;;;4.10;99.90;;;;;;4948029;28;20455;-83
2022/01/07 11:43:31;;;;;;;2.93;2.00;;;4.20;99.90;;;;;;4929829;28;10000486;-82
2022/01/07 11:45:59;;;;;;;4.45;1.85;;;4.20;99.90;;;;;;4599958;28;10000273;-83
2022/01/07 11:48:27;;;;;;;2.17;1.58;;;4.30;99.90;;;;;;4940010;28;20042;-83
2022/01/07 11:50:56;;;;;;;3.25;1.58;;;4.30;99.90;;;;;;4930928;28;20049;-83
2022/01/07 11:53:28;;;;;;;4.20;1.45;;;4.30;99.90;;;;;;4956364;28;20368;-83
2022/01/07 11:56:01;;;;;;;4.90;1.58;;;4.30;99.90;;;;;;4929650;28;20046;-83
2022/01/07 11:58:39;;;;;;;7.78;2.90;;;4.40;99.90;;;;;;4910490;28;20515;-82
2022/01/07 12:01:05;;;;;;;1.90;1.40;;;4.40;99.90;;;;;;4924475;28;20407;-82
2022/01/07 12:03:37;;;;;;;2.58;1.90;;;4.40;99.90;;;;;;4930044;28;20047;-83
2022/01/07 12:06:17;;;;;;;3.60;1.92;;;4.40;99.90;;;;;;4941492;28;20126;-83
2022/01/07 12:09:08;;;;;;;4.88;2.60;;;4.40;99.90;;;;;;4940752;28;20487;-83
2022/01/07 12:11:40;;;;;;;5.03;1.52;;;4.40;99.90;;;;;;4933866;28;20093;-83
2022/01/07 12:14:10;;;;;;;2.88;1.20;;;4.50;99.90;;;;;;4925774;28;20038;-83
2022/01/07 12:16:36;;;;;;;5.95;2.80;;;4.50;99.90;;;;;;4959864;28;20504;-83
2022/01/07 12:19:16;;;;;;;6.50;2.08;;;4.40;99.90;;;;;;4939246;28;20039;-83
2022/01/07 12:21:42;;;;;;;3.88;1.55;;;4.40;99.90;;;;;;4947210;28;20035;-83
2022/01/07 12:24:09;;;;;;;5.97;1.80;;;4.50;99.90;;;;;;4941242;28;20055;-83
2022/01/07 12:26:35;;;;;;;2.47;1.48;;;4.50;99.90;;;;;;4942822;28;20051;-83
2022/01/07 12:29:00;;;;;;;3.03;1.92;;;4.60;99.90;;;;;;4942462;28;20086;-83
2022/01/07 12:31:26;;;;;;;3.08;1.45;;;4.60;99.90;;;;;;4939692;28;20110;-83
2022/01/07 12:33:56;;;;;;;4.38;2.20;;;4.40;99.90;;;;;;4960562;28;20110;-82
2022/01/07 12:36:32;;;;;;;3.55;1.30;;;4.60;99.90;;;;;;4942956;28;20134;-82
2022/01/07 12:39:23;;;;;;;5.03;2.17;;;4.60;99.90;;;;;;4932402;28;20526;-83
2022/01/07 12:41:53;;;;;;;10.57;2.63;;;4.60;99.90;;;;;;4936972;28;20035;-83
2022/01/07 12:44:18;;;;;;;2.97;1.40;;;4.60;99.90;;;;;;4922563;28;20511;-83
2022/01/07 12:46:53;;;;;;;6.45;2.10;;;4.60;99.90;;;;;;4934291;28;20035;-83
2022/01/07 12:49:19;;;;;;;4.60;1.95;;;4.60;99.90;;;;;;4926349;28;20551;-83
2022/01/07 12:51:57;;;;;;;2.42;1.25;;;4.60;99.90;;;;;;4927659;28;20213;-84
2022/01/07 12:54:23;;;;;;;2.85;1.70;;;4.60;99.90;;;;;;4924021;28;20451;-83
2022/01/07 12:56:49;;;;;;;7.88;2.58;;;4.60;99.90;;;;;;4938835;28;20039;-83
2022/01/07 12:59:17;;;;;;;5.63;2.67;;;4.70;99.90;;;;;;4951724;28;20487;-83
2022/01/07 13:01:46;;;;;;;9.25;2.13;;;4.70;99.90;;;;;;4940188;28;20039;-83
2022/01/07 13:04:17;;;;;;;2.65;1.30;;;4.70;99.90;;;;;;4938665;28;20133;-82